Tiempo atmosférico en la estación meteorológica de Atzeneta Del Maestrat, Castelló/Castellón (420 m.)

Fecha
DESCASC
Temp. máxima en grados centígrados (hora)
DESCASC
Temp. mínima en grados centígrados (hora)
DESCASC
Temp. media en grados centígrados
DESCASC
Racha de viento máxima en m/sg (hora)
DESCASC
Velocidad máxima media en intervalos de 10 minutos(hora)
DESCASC
Precipitaciones diarias en mm
DESCASC
Precipitaciones de 00:00 a 06:00 en mm
DESCASC
Precipitaciones de 06:00 a 12:00 en mm
DESCASC
Precipitaciones de 12:00 a 18:00 en mm
DESCASC
Precipitaciones de 18:00 a 24:00 en mm
DESCASC
10-12-2017 18.7 (13:50) 2.7 (03:50) 10.7 20 (19:30) 13.33 (19:20) 0 0 0 0 0
09-12-2017 13.8 (13:20) 2.8 (08:30) 8.3 9.44 (10:20) 4.72 (05:20) 0 0 0 0 0
08-12-2017 17.7 (13:50) 0.1 (02:00) 8.9 11.39 (17:30) 6.39 (16:20) 0 0 0 0 0
07-12-2017 14.7 (13:20) -3.6 (-00:0) 5.5 4.17 (14:40) 2.22 (15:00) 0 0 0 0 0
06-12-2017 14.5 (14:40) -3.8 (-00:0) 5.4 6.11 (15:00) 4.17 (15:10) 0 0 0 0 0
05-12-2017 14.7 (15:00) -2.7 (-00:0) 6 5.28 (14:20) 3.33 (14:20) 0 0 0 0 0
04-12-2017 15.7 (14:30) -0.9 (-00:0) 7.4 6.39 (10:50) 3.61 (10:50) 0 0 0 0 0
03-12-2017 13 (14:30) 0.1 (00:00) 6.6 16.67 (00:30) 10 (00:20) 0 0 0 0 0
02-12-2017 8 (12:40) 3 (00:00) 5.5 22.22 (13:30) 13.89 (14:50) 0 0 0 0 0
01-12-2017 11.9 (11:20) 1.4 (00:00) 6.6 18.89 (21:10) 11.39 (21:10) 0 0 0 0 0
30-11-2017 11.9 (15:00) 2.6 (00:00) 7.2 10.28 (13:50) 5.83 (12:00) 0 0 0 0 0
29-11-2017 13.4 (13:50) 4.2 (00:00) 8.8 8.33 (13:10) 4.72 (13:00) 2.2 1.6 0.6 0 0
28-11-2017 16.8 (13:10) -0.7 (-00:0) 8 5 (13:10) 2.78 (13:10) 0 0 0 0 0
27-11-2017 15.4 (13:50) -1.9 (-00:0) 6.7 6.39 (14:20) 3.89 (14:40) 0 0 0 0 0
26-11-2017 16.6 (14:30) 0.6 (00:00) 8.6 11.94 (00:50) 7.5 (00:50) 0 0 0 0 0
25-11-2017 19.6 (14:00) 7.8 (00:00) 13.7 14.44 (17:20) 8.33 (17:20) 0 0 0 0 0
24-11-2017 24.5 (12:40) 9.9 (00:00) 17.2 10 (13:40) 6.11 (13:50) 0 0 0 0 0
23-11-2017 20.7 (14:50) 1.6 (00:00) 11.2 3.61 (15:20) 2.22 (17:40) 0 0 0 0 0
22-11-2017 19.1 (15:10) 0.9 (00:00) 10 4.44 (14:30) 2.78 (14:50) 0 0 0 0 0
21-11-2017 21.7 (15:10) 1.3 (00:00) 11.5 5.28 (15:50) 3.61 (15:50) 0 0 0 0 0
20-11-2017 20.4 (14:30) 1.1 (00:00) 10.7 4.72 (14:50) 3.33 (15:00) 0 0 0 0 0
19-11-2017 20.1 (15:10) 1.2 (00:00) 10.7 3.89 (16:20) 2.78 (16:30) 0 0 0 0 0
18-11-2017 20.4 (13:50) 2.3 (00:00) 11.3 6.11 (14:40) 3.61 (15:00) 0 0 0 0 0
17-11-2017 20.6 (15:10) 1 (00:00) 10.8 4.72 (15:20) 2.78 (14:40) 0 0 0 0 0
16-11-2017 18.3 (15:10) 0.1 (00:00) 9.2 4.72 (14:00) 2.78 (16:20) 0 0 0 0 0
15-11-2017 18.5 (14:40) -1.3 (-00:0) 8.6 4.17 (15:00) 2.5 (15:50) 0 0 0 0 0

Gráficas

Temp. máximas Temp. mínimas Temp. medias Precipitaciones Rachas de viento máximas Velocidades máximas media en intervalos de 10 minutos

Datos horarios

Fecha y hora oficial Temperatura (ºC) Velocidad del viento (km/h) Dirección del viento Racha (km/h) Dirección de racha Precipitación (mm) Presión (hPa) Tendencia (hPa) Humedad (%)
2017-12-14 23:00:00 10.2 0 Calma 8 Sudeste 0 -- -- 68
2017-12-14 22:00:00 10.3 2 Sudoeste 8 Oeste 0 -- -- 68
2017-12-14 21:00:00 11.3 5 Norte 9 Oeste 0 -- -- 64
2017-12-14 20:00:00 12.3 5 Norte 16 Oeste 0 -- -- 60
2017-12-14 19:00:00 13.1 5 Oeste 10 Noroeste 0 -- -- 57
2017-12-14 18:00:00 17.1 8 Noroeste 22 Noroeste 0 -- -- 47
2017-12-14 17:00:00 18.7 13 Noroeste 24 Norte 0 -- -- 44
2017-12-14 16:00:00 19.6 2 Noroeste 13 Sur 0 -- -- 44
2017-12-14 15:00:00 20.4 5 Sur 17 Sudeste 0 -- -- 42
2017-12-14 14:00:00 20.3 6 Sudeste 23 Oeste 0 -- -- 41
2017-12-14 13:00:00 19.4 10 Nordeste 24 Nordeste 0 -- -- 42
2017-12-14 12:00:00 16.6 6 Norte 14 Norte 0 -- -- 46
2017-12-14 11:00:00 13 4 Sur 14 Noroeste 0 -- -- 58
2017-12-14 10:00:00 7.7 4 Norte 10 Nordeste 0 -- -- 76
2017-12-14 09:00:00 5 0 Calma 10 Oeste 0 -- -- 81
2017-12-14 08:00:00 3.2 4 Sur 13 Sudoeste 0 -- -- 85
2017-12-14 07:00:00 2.3 0 Calma 15 Oeste 0 -- -- 79
2017-12-14 06:00:00 3 3 Nordeste 10 Nordeste 0 -- -- 78
2017-12-14 05:00:00 2.8 3 Sudoeste 16 Sudeste 0 -- -- 76
2017-12-14 04:00:00 2.2 6 Noroeste 9 Noroeste 0 -- -- 81
2017-12-14 03:00:00 2.6 0 Calma 15 Norte 0 -- -- 77
2017-12-14 02:00:00 2.2 3 Sudoeste 8 Norte 0 -- -- 76
2017-12-14 01:00:00 1.8 5 Sudoeste 8 Sudoeste 0 -- -- 75
2017-12-14 00:00:00 2.5 3 Nordeste 11 Sudoeste 0 -- -- 72
2017-12-13 23:00:00 2.5 4 Sudoeste 6 Oeste 0 -- -- 69
2017-12-13 22:00:00 2.9 3 Oeste 10 Sudoeste 0 -- -- 67
2017-12-13 21:00:00 4.1 5 Norte 7 Norte 0 -- -- 63
2017-12-13 20:00:00 5.2 3 Oeste 7 Noroeste 0 -- -- 57
2017-12-13 19:00:00 7.5 4 Norte 7 Noroeste 0 -- -- 51
2017-12-13 18:00:00 9.6 6 Oeste 9 Noroeste 0 -- -- 45
2017-12-13 17:00:00 12.5 0 Calma 6 Nordeste 0 -- -- 38
2017-12-13 16:00:00 12.4 0 Calma 8 Nordeste 0 -- -- 37
2017-12-13 15:00:00 12.1 5 Nordeste 9 Este 0 -- -- 37
2017-12-13 14:00:00 11.9 3 Sudeste 8 Nordeste 0 -- -- 37
2017-12-13 13:00:00 10.7 3 Nordeste 6 Nordeste 0 -- -- 38
2017-12-13 12:00:00 9.3 2 Este 6 Este 0 -- -- 41
2017-12-13 11:00:00 6.3 0 Calma 4 Nordeste 0 -- -- 47
2017-12-13 10:00:00 3.9 0 Calma 4 Noroeste 0 -- -- 55
2017-12-13 09:00:00 -2 2 Oeste 4 Noroeste 0 -- -- 74
2017-12-13 08:00:00 -2.9 0 Calma 2 Oeste 0 -- -- 74
2017-12-13 07:00:00 -2.7 0 Calma 3 Noroeste 0 -- -- 73
2017-12-13 06:00:00 -2.7 0 Calma 6 Oeste 0 -- -- 75
2017-12-13 05:00:00 -2.8 0 Calma 7 Oeste 0 -- -- 75
2017-12-13 04:00:00 -2.3 3 Oeste 9 Noroeste 0 -- -- 76
2017-12-13 03:00:00 -2.1 0 Calma 10 Sudoeste 0 -- -- 74
2017-12-13 02:00:00 -1.5 3 Nordeste 7 Oeste 0 -- -- 72
2017-12-13 01:00:00 -0.9 0 Calma 7 Sudoeste 0 -- -- 69
2017-12-13 00:00:00 0.3 2 Noroeste 9 Oeste 0 -- -- 64
2017-12-12 23:00:00 1.6 5 Oeste 10 Noroeste 0 -- -- 60
2017-12-12 22:00:00 2 5 Sudoeste 14 Noroeste 0 -- -- 60
2017-12-12 21:00:00 5.2 12 Noroeste 19 Noroeste 0 -- -- 52
2017-12-12 20:00:00 3.5 3 Nordeste 11 Noroeste 0 -- -- 46
2017-12-12 19:00:00 6.1 6 Noroeste 17 Oeste 0 -- -- 38
2017-12-12 18:00:00 8.1 5 Noroeste 13 Norte 0 -- -- 27
2017-12-12 17:00:00 10.9 5 Norte 32 Noroeste 0 -- -- 20
2017-12-12 16:00:00 11.8 8 Norte 31 Norte 0 -- -- 19
2017-12-12 15:00:00 12 18 Norte 29 Noroeste 0 -- -- 21
2017-12-12 14:00:00 11.7 15 Norte 30 Norte 0 -- -- 29
2017-12-12 13:00:00 12 15 Norte 28 Norte 0 -- -- 32
2017-12-12 12:00:00 11.1 15 Noroeste 31 Noroeste 0 -- -- 33
2017-12-12 11:00:00 9.8 6 Norte 17 Norte 0 -- -- 39
2017-12-12 10:00:00 8.2 6 Nordeste 30 Noroeste 0 -- -- 43
2017-12-12 09:00:00 7.8 21 Norte 45 Noroeste 0 -- -- 47
2017-12-12 08:00:00 7.8 15 Noroeste 37 Noroeste 0 -- -- 47
2017-12-12 07:00:00 7.7 20 Noroeste 35 Noroeste 0 -- -- 48
2017-12-12 06:00:00 7.4 6 Nordeste 18 Nordeste 0 -- -- 50
2017-12-12 05:00:00 7.3 5 Nordeste 19 Nordeste 0 -- -- 54
2017-12-12 04:00:00 7.5 8 Norte 34 Norte 0 -- -- 57
2017-12-12 03:00:00 7.7 22 Norte 40 Noroeste 0 -- -- 61
2017-12-12 02:00:00 3 0 Calma 8 Noroeste 0 -- -- 72
2017-12-12 01:00:00 3.4 2 Oeste 6 Norte 0 -- -- 71
2017-12-12 00:00:00 3.3 0 Calma 9 Noroeste 0 -- -- 69
2017-12-11 23:00:00 3.1 3 Noroeste 10 Sudeste 0 -- -- 68
2017-12-11 22:00:00 4.1 5 Sudeste 14 Nordeste 0 -- -- 63
2017-12-11 21:00:00 5.2 3 Sudoeste 13 Oeste 0 -- -- 58
2017-12-11 20:00:00 7.3 9 Oeste 13 Oeste 0 -- -- 53
2017-12-11 19:00:00 10.1 3 Sudeste 31 Oeste 0 -- -- 43
2017-12-11 18:00:00 11 11 Noroeste 26 Noroeste 0 -- -- 43
2017-12-11 17:00:00 13 4 Sur 16 Sur 0 -- -- 43
2017-12-11 16:00:00 12.4 7 Sudoeste 39 Nordeste 0 -- -- 50
2017-12-11 15:00:00 15.2 21 Oeste 42 Oeste 0 -- -- 38
2017-12-11 14:00:00 13.8 11 Noroeste 26 Noroeste 0 -- -- 43
2017-12-11 13:00:00 13.5 12 Noroeste 28 Oeste 0 -- -- 42
2017-12-11 12:00:00 13.3 12 Oeste 29 Sudoeste 0 -- -- 49
2017-12-11 11:00:00 13.4 10 Oeste 21 Oeste 0 -- -- 53
2017-12-11 10:00:00 12.8 2 Oeste 17 Noroeste 0 -- -- 61
2017-12-11 09:00:00 12.8 9 Sudoeste 27 Sudoeste 0 -- -- 76
2017-12-11 08:00:00 14.6 10 Oeste 35 Sudoeste 0 -- -- 66
2017-12-11 07:00:00 15.1 15 Sur 34 Sur 0 -- -- 60
2017-12-11 06:00:00 15.7 19 Sur 49 Sudeste 0 -- -- 54
2017-12-11 05:00:00 15.1 27 Sur 51 Sur 0 -- -- 60
2017-12-11 04:00:00 14.9 20 Sur 36 Sudoeste 0 -- -- 60
2017-12-11 03:00:00 13.8 12 Sudeste 28 Sudeste 0 -- -- 62
2017-12-11 02:00:00 13.6 18 Sudeste 37 Sudeste 0 -- -- 64
2017-12-11 01:00:00 13.5 15 Sur 35 Sur 0 -- -- 65
2017-12-11 00:00:00 13.4 21 Sur 40 Sur 0 -- -- 66
2017-12-10 23:00:00 12.7 13 Sudoeste 29 Sudoeste 0 -- -- 70
2017-12-10 22:00:00 13.4 19 Sudoeste 29 Sudoeste 0 -- -- 66
2017-12-10 21:00:00 13.4 15 Sudoeste 22 Sur 0 -- -- 60
2017-12-10 20:00:00 14.4 10 Noroeste 72 Oeste 0 -- -- 55
2017-12-10 19:00:00 13.3 17 Oeste 32 Oeste 0 -- -- 58
2017-12-10 18:00:00 12.9 5 Sudeste 10 Sudeste 0 -- -- 59
2017-12-10 17:00:00 14.7 0 Calma 20 Sur 0 -- -- 54
2017-12-10 16:00:00 16.1 4 Norte 28 Oeste 0 -- -- 49
2017-12-10 15:00:00 17.8 13 Noroeste 23 Noroeste 0 -- -- 45
2017-12-10 14:00:00 18.6 12 Oeste 26 Norte 0 -- -- 43
2017-12-10 13:00:00 18.3 14 Noroeste 28 Norte 0 -- -- 42
2017-12-10 12:00:00 18.3 14 Oeste 27 Oeste 0 -- -- 42
2017-12-10 11:00:00 17.4 12 Sudeste 39 Oeste 0 -- -- 44
2017-12-10 10:00:00 16.3 6 Este 22 Sudoeste 0 -- -- 45
2017-12-10 09:00:00 12.2 7 Sudoeste 15 Sudoeste 0 -- -- 56
2017-12-10 08:00:00 11.5 5 Sudoeste 14 Oeste 0 -- -- 58
2017-12-10 07:00:00 11.7 4 Oeste 29 Noroeste 0 -- -- 59
2017-12-10 06:00:00 6.6 8 Oeste 32 Oeste 0 -- -- 88
2017-12-10 05:00:00 3.1 6 Sudoeste 13 Oeste 0 -- -- 95
2017-12-10 04:00:00 2.9 5 Oeste 11 Noroeste 0 -- -- 95
2017-12-10 03:00:00 3.2 3 Norte 10 Sudeste 0 -- -- 93
2017-12-10 02:00:00 4.1 4 Norte 14 Noroeste 0 -- -- 93
2017-12-10 01:00:00 4.6 3 Noroeste 6 Noroeste 0 -- -- 89
2017-12-10 00:00:00 5.5 0 Calma 10 Noroeste 0 -- -- 85
2017-12-09 23:00:00 6.9 3 Sudoeste 7 Noroeste 0 -- -- 81
2017-12-09 22:00:00 8.9 3 Noroeste 8 Norte 0 -- -- 77
2017-12-09 21:00:00 9.3 0 Calma 4 Noroeste 0 -- -- 75
2017-12-09 20:00:00 9.8 0 Calma 14 Sur 0 -- -- 73
2017-12-09 19:00:00 10 8 Sur 15 Sur 0 -- -- 73
2017-12-09 18:00:00 10.4 8 Sur 16 Sur 0 -- -- 69
2017-12-09 17:00:00 11.5 6 Sur 13 Sur 0 -- -- 59
2017-12-09 16:00:00 12.5 4 Sudoeste 6 Sudoeste 0 -- -- 46
2017-12-09 15:00:00 12.3 4 Oeste 14 Sur 0 -- -- 47
2017-12-09 14:00:00 12.9 6 Sur 23 Sudeste 0 -- -- 46
2017-12-09 13:00:00 11.8 6 Este 14 Sudeste 0 -- -- 47
2017-12-09 12:00:00 10 3 Sudeste 25 Noroeste 0 -- -- 51
2017-12-09 11:00:00 10 8 Noroeste 34 Noroeste 0 -- -- 48
2017-12-09 10:00:00 8.4 11 Noroeste 20 Noroeste 0 -- -- 58
2017-12-09 09:00:00 6.1 10 Norte 15 Norte 0 -- -- 71
2017-12-09 08:00:00 3.7 3 Oeste 12 Oeste 0 -- -- 77
2017-12-09 07:00:00 4.2 3 Sudoeste 9 Sur 0 -- -- 78
2017-12-09 06:00:00 7.3 6 Sur 26 Norte 0 -- -- 68
2017-12-09 05:00:00 10 13 Noroeste 22 Noroeste 0 -- -- 57
2017-12-09 04:00:00 10.1 9 Nordeste 18 Este 0 -- -- 62
2017-12-09 03:00:00 9.9 7 Nordeste 15 Nordeste 0 -- -- 68
2017-12-09 02:00:00 11.2 8 Norte 27 Noroeste 0 -- -- 64
2017-12-09 01:00:00 10.4 14 Noroeste 24 Norte 0 -- -- 65
2017-12-09 00:00:00 8.6 4 Sur 15 Noroeste 0 -- -- 71
2017-12-08 23:00:00 9.9 5 Noroeste 19 Noroeste 0 -- -- 67
2017-12-08 22:00:00 12 11 Noroeste 23 Noroeste 0 -- -- 63
2017-12-08 21:00:00 12.9 9 Noroeste 17 Oeste 0 -- -- 60
2017-12-08 20:00:00 13.5 0 Calma 23 Norte 0 -- -- 60
2017-12-08 19:00:00 14.5 15 Noroeste 37 Noroeste 0 -- -- 56
2017-12-08 18:00:00 14.4 19 Noroeste 41 Noroeste 0 -- -- 56
2017-12-08 17:00:00 15.3 20 Noroeste 36 Noroeste 0 -- -- 54
2017-12-08 16:00:00 15.4 17 Noroeste 34 Oeste 0 -- -- 53
2017-12-08 15:00:00 16.2 19 Noroeste 35 Noroeste 0 -- -- 50
2017-12-08 14:00:00 17.6 8 Norte 26 Noroeste 0 -- -- 45
2017-12-08 13:00:00 17.5 5 Sur 10 Sudeste 0 -- -- 47
2017-12-08 12:00:00 15.6 4 Sudoeste 9 Sur 0 -- -- 50
2017-12-08 11:00:00 13.5 0 Calma 7 Este 0 -- -- 52
2017-12-08 10:00:00 9.3 4 Sudeste 9 Sudeste 0 -- -- 62
2017-12-08 09:00:00 5.3 7 Oeste 13 Oeste 0 -- -- 74
2017-12-08 08:00:00 3.8 3 Este 9 Noroeste 0 -- -- 73
2017-12-08 07:00:00 2.7 5 Sudoeste 9 Noroeste 0 -- -- 78
2017-12-08 06:00:00 2.8 2 Noroeste 10 Oeste 0 -- -- 76
2017-12-08 05:00:00 3 3 Nordeste 6 Nordeste 0 -- -- 76
2017-12-08 04:00:00 3.2 3 Sudoeste 7 Oeste 0 -- -- 79
2017-12-08 03:00:00 1.1 0 Calma 5 Oeste 0 -- -- 86
2017-12-08 02:00:00 0.1 3 Sudoeste 8 Noroeste 0 -- -- 84
2017-12-08 01:00:00 0.7 2 Noroeste 6 Noroeste 0 -- -- 86
2017-12-08 00:00:00 1.1 3 Oeste 5 Norte 0 -- -- 85
2017-12-07 23:00:00 1.7 0 Calma 4 Noroeste 0 -- -- 82
2017-12-07 22:00:00 3 0 Calma 3 Este 0 -- -- 79
2017-12-07 21:00:00 4.2 0 Calma 2 Norte 0 -- -- 74
2017-12-07 20:00:00 6.3 0 Calma 8 Noroeste 0 -- -- 70
2017-12-07 19:00:00 7.9 0 Calma 9 Noroeste 0 -- -- 66
2017-12-07 18:00:00 10.1 2 Oeste 7 Oeste 0 -- -- 61
2017-12-07 17:00:00 12.3 3 Sur 11 Sur 0 -- -- 54
2017-12-07 16:00:00 14.2 7 Sur 12 Sur 0 -- -- 49
2017-12-07 15:00:00 13.8 8 Sudeste 15 Sudeste 0 -- -- 50
2017-12-07 14:00:00 14.6 8 Sudeste 14 Sudeste 0 -- -- 46
2017-12-07 13:00:00 13.8 4 Sur 9 Sur 0 -- -- 45
2017-12-07 12:00:00 9.9 3 Sudeste 5 Sur 0 -- -- 43
2017-12-07 11:00:00 7.2 2 Sudoeste 5 Sur 0 -- -- 51
2017-12-07 10:00:00 3.1 0 Calma 2 Sudeste 0 -- -- 77
2017-12-07 09:00:00 -1.3 0 Calma 2 Oeste 0 -- -- 95
2017-12-07 08:00:00 -3.3 0 Calma 0 Calma 0 -- -- 92
2017-12-07 07:00:00 -3.4 0 Calma 4 Sudeste 0 -- -- 93
2017-12-07 06:00:00 -3 0 Calma 3 Sudoeste 0 -- -- 94
2017-12-07 05:00:00 -2.8 0 Calma 2 Sur 0 -- -- 94
2017-12-07 04:00:00 -2.4 0 Calma 4 Sudoeste 0 -- -- 95
2017-12-07 03:00:00 -1.8 0 Calma 2 Sur 0 -- -- 94
2017-12-07 02:00:00 -1.5 0 Calma 4 Sur 0 -- -- 93
2017-12-07 01:00:00 -1.3 0 Calma 3 Sudeste 0 -- -- 93
2017-12-07 00:00:00 -0.9 0 Calma 4 Noroeste 0 -- -- 91
2017-12-06 23:00:00 0.2 0 Calma 3 Este 0 -- -- 91
2017-12-06 22:00:00 0.6 0 Calma 2 Sur 0 -- -- 87
2017-12-06 21:00:00 2 0 Calma 3 Sudeste 0 -- -- 82
2017-12-06 20:00:00 3.6 0 Calma 4 Oeste 0 -- -- 81
2017-12-06 19:00:00 5.2 3 Este 9 Noroeste 0 -- -- 73
2017-12-06 18:00:00 8 5 Noroeste 13 Sur 0 -- -- 65
2017-12-06 17:00:00 11.7 6 Sur 16 Sudeste 0 -- -- 56
2017-12-06 16:00:00 13.4 11 Sur 22 Sudeste 0 -- -- 57
2017-12-06 15:00:00 14 13 Sudeste 22 Sudeste 0 -- -- 52
2017-12-06 14:00:00 13.7 10 Sudeste 17 Sudeste 0 -- -- 50
2017-12-06 13:00:00 12.1 5 Este 15 Sudeste 0 -- -- 62
2017-12-06 12:00:00 10 2 Sudeste 6 Sudeste 0 -- -- 57
2017-12-06 11:00:00 5.6 2 Sur 4 Sudeste 0 -- -- 59
2017-12-06 10:00:00 -1.1 0 Calma 2 Sur 0 -- -- 88
2017-12-06 09:00:00 -3 0 Calma 2 Norte 0 -- -- 92
2017-12-06 08:00:00 -3.8 0 Calma 2 Este 0 -- -- 90
2017-12-06 07:00:00 -3.3 0 Calma 2 Oeste 0 -- -- 91
2017-12-06 06:00:00 -3.3 0 Calma 2 Oeste 0 -- -- 90
2017-12-06 05:00:00 -2.9 0 Calma 2 Sudoeste 0 -- -- 91
2017-12-06 04:00:00 -2.7 0 Calma 2 Norte 0 -- -- 89
2017-12-06 03:00:00 -2.4 0 Calma 2 Oeste 0 -- -- 88
2017-12-06 02:00:00 -1.9 0 Calma 2 Sudoeste 0 -- -- 87
2017-12-06 01:00:00 -1.3 0 Calma 4 Sudeste 0 -- -- 84
2017-12-06 00:00:00 -1.1 0 Calma 2 Oeste 0 -- -- 83
2017-12-05 23:00:00 -0.3 0 Calma 3 Este 0 -- -- 82
2017-12-05 22:00:00 0.4 0 Calma 2 Norte 0 -- -- 77
2017-12-05 21:00:00 1.7 0 Calma 2 Sudeste 0 -- -- 71
2017-12-05 20:00:00 2.9 0 Calma 5 Noroeste 0 -- -- 68
2017-12-05 19:00:00 4.6 2 Oeste 5 Oeste 0 -- -- 63
2017-12-05 18:00:00 8.1 0 Calma 11 Sur 0 -- -- 53
2017-12-05 17:00:00 11.6 8 Sudoeste 15 Sur 0 -- -- 45
2017-12-05 16:00:00 13.8 10 Sur 18 Sudeste 0 -- -- 41
2017-12-05 15:00:00 14.7 9 Sur 19 Sudeste 0 -- -- 38
2017-12-05 14:00:00 14.2 10 Sudeste 19 Sudeste 0 -- -- 39
2017-12-05 13:00:00 12.9 8 Sudeste 15 Sudeste 0 -- -- 41
2017-12-05 12:00:00 10.7 3 Nordeste 8 Nordeste 0 -- -- 46
2017-12-05 11:00:00 8 2 Sur 5 Sudeste 0 -- -- 54
2017-12-05 10:00:00 4.7 0 Calma 3 Sudeste 0 -- -- 64
2017-12-05 09:00:00 -1.4 0 Calma 2 Este 0 -- -- 90
2017-12-05 08:00:00 -2.5 0 Calma 2 Oeste 0 -- -- 88
2017-12-05 07:00:00 -2.7 0 Calma 2 Nordeste 0 -- -- 88
2017-12-05 06:00:00 -2.2 0 Calma 2 Este 0 -- -- 86
2017-12-05 05:00:00 -1.7 0 Calma 2 Oeste 0 -- -- 86
2017-12-05 04:00:00 -1.5 0 Calma 2 Este 0 -- -- 85
2017-12-05 03:00:00 -1 0 Calma 0 Calma 0 -- -- 83
2017-12-05 02:00:00 -0.6 0 Calma 2 Sur 0 -- -- 81
2017-12-05 01:00:00 -0.5 0 Calma 3 Sudoeste 0 -- -- 82
2017-12-05 00:00:00 -0.2 0 Calma 3 Sudoeste 0 -- -- 79
2017-12-04 23:00:00 0.2 0 Calma 2 Sur 0 -- -- 77
2017-12-04 22:00:00 1 0 Calma 3 Sudoeste 0 -- -- 74
2017-12-04 21:00:00 2.4 0 Calma 5 Noroeste 0 -- -- 68
2017-12-04 20:00:00 3.5 0 Calma 8 Noroeste 0 -- -- 63
2017-12-04 19:00:00 5.3 0 Calma 8 Noroeste 0 -- -- 58
2017-12-04 18:00:00 8.5 3 Oeste 14 Sudeste 0 -- -- 50
2017-12-04 17:00:00 11.9 8 Sudeste 19 Sur 0 -- -- 43
2017-12-04 16:00:00 14.2 12 Sur 17 Sur 0 -- -- 36
2017-12-04 15:00:00 15.7 7 Sur 15 Sur 0 -- -- 32
2017-12-04 14:00:00 15.1 6 Sur 13 Sur 0 -- -- 34
2017-12-04 13:00:00 14.5 8 Sur 14 Este 0 -- -- 37
2017-12-04 12:00:00 12.2 8 Este 18 Este 0 -- -- 42
2017-12-04 11:00:00 10.7 12 Norte 23 Norte 0 -- -- 48
2017-12-04 10:00:00 7.4 2 Este 9 Sudeste 0 -- -- 58
2017-12-04 09:00:00 1.2 2 Sur 9 Sur 0 -- -- 74
2017-12-04 08:00:00 -0.3 3 Este 7 Sudoeste 0 -- -- 78
2017-12-04 07:00:00 0 2 Sudeste 9 Oeste 0 -- -- 71
2017-12-04 06:00:00 3 2 Nordeste 13 Noroeste 0 -- -- 67
2017-12-04 05:00:00 1.7 3 Este 9 Nordeste 0 -- -- 71
2017-12-04 04:00:00 0.8 4 Sudeste 10 Este 0 -- -- 62
2017-12-04 03:00:00 4.1 5 Nordeste 17 Nordeste 0 -- -- 61
2017-12-04 02:00:00 4.2 4 Este 12 Norte 0 -- -- 55
2017-12-04 01:00:00 -0.2 3 Norte 10 Noroeste 0 -- -- 52
2017-12-04 00:00:00 1.1 2 Nordeste 9 Noroeste 0 -- -- 46
2017-12-03 23:00:00 0.8 2 Sudoeste 10 Nordeste 0 -- -- 39
2017-12-03 22:00:00 4.7 8 Norte 24 Norte 0 -- -- 32
2017-12-03 21:00:00 4.5 8 Noroeste 23 Noroeste 0 -- -- 31
2017-12-03 20:00:00 5.3 14 Noroeste 23 Noroeste 0 -- -- 27
2017-12-03 19:00:00 5.7 2 Sudeste 11 Sudoeste 0 -- -- 25
2017-12-03 18:00:00 7.6 8 Norte 19 Norte 0 -- -- 23
2017-12-03 17:00:00 10.5 5 Nordeste 22 Nordeste 0 -- -- 22
2017-12-03 16:00:00 12 13 Este 20 Este 0 -- -- 19
2017-12-03 15:00:00 13 4 Este 15 Sudeste 0 -- -- 18
2017-12-03 14:00:00 12.2 9 Norte 21 Nordeste 0 -- -- 18
2017-12-03 13:00:00 11.6 12 Nordeste 21 Norte 0 -- -- 19
2017-12-03 12:00:00 10.5 12 Nordeste 19 Norte 0 -- -- 21
2017-12-03 11:00:00 8.5 12 Nordeste 23 Nordeste 0 -- -- 24
2017-12-03 10:00:00 6.5 13 Nordeste 21 Nordeste 0 -- -- 26
2017-12-03 09:00:00 4.6 8 Nordeste 22 Nordeste 0 -- -- 28
2017-12-03 08:00:00 3.9 13 Nordeste 25 Norte 0 -- -- 29
2017-12-03 07:00:00 4 14 Norte 25 Nordeste 0 -- -- 30
2017-12-03 06:00:00 3.7 10 Nordeste 29 Nordeste 0 -- -- 31
2017-12-03 05:00:00 4 17 Nordeste 36 Nordeste 0 -- -- 32
2017-12-03 04:00:00 3.7 9 Nordeste 33 Noroeste 0 -- -- 33
2017-12-03 03:00:00 4.1 13 Norte 44 Noroeste 0 -- -- 34
2017-12-03 02:00:00 3.8 27 Noroeste 54 Noroeste 0 -- -- 37
2017-12-03 01:00:00 3.7 30 Noroeste 60 Noroeste 0 -- -- 39
2017-12-03 00:00:00 3.8 21 Norte 39 Noroeste 0 -- -- 37
2017-12-02 23:00:00 3.7 12 Nordeste 48 Noroeste 0 -- -- 38
2017-12-02 22:00:00 3.7 24 Norte 64 Noroeste 0 -- -- 39
2017-12-02 21:00:00 3.8 35 Norte 71 Noroeste 0 -- -- 40
2017-12-02 20:00:00 4.2 36 Norte 71 Norte 0 -- -- 40
2017-12-02 19:00:00 4.9 22 Norte 57 Noroeste 0 -- -- 33
2017-12-02 18:00:00 5.5 23 Norte 59 Norte 0 -- -- 34
2017-12-02 17:00:00 6.6 31 Norte 74 Norte 0 -- -- 33
2017-12-02 16:00:00 7.1 33 Norte 78 Noroeste 0 -- -- 33
2017-12-02 15:00:00 7.4 44 Norte 80 Norte 0 -- -- 32
2017-12-02 14:00:00 7.7 43 Norte 80 Noroeste 0 -- -- 30
2017-12-02 13:00:00 7.8 43 Norte 79 Noroeste 0 -- -- 30
2017-12-02 12:00:00 7.8 34 Norte 68 Norte 0 -- -- 30
2017-12-02 11:00:00 7.2 31 Norte 58 Norte 0 -- -- 29
2017-12-02 10:00:00 6.4 36 Noroeste 60 Noroeste 0 -- -- 28
2017-12-02 09:00:00 5.1 24 Noroeste 50 Norte 0 -- -- 33
2017-12-02 08:00:00 3.9 25 Noroeste 47 Noroeste 0 -- -- 40
2017-12-02 07:00:00 4 27 Noroeste 54 Noroeste 0 -- -- 42
2017-12-02 06:00:00 4.5 30 Noroeste 60 Norte 0 -- -- 41
2017-12-02 05:00:00 4.4 28 Noroeste 62 Noroeste 0 -- -- 42
2017-12-02 04:00:00 4.5 31 Noroeste 59 Noroeste 0 -- -- 45
2017-12-02 03:00:00 4.3 12 Norte 45 Norte 0 -- -- 45
2017-12-02 02:00:00 3.2 3 Sudeste 27 Norte 0 -- -- 47
2017-12-02 01:00:00 3.5 19 Norte 60 Noroeste 0 -- -- 48
2017-12-02 00:00:00 4.1 32 Noroeste 60 Noroeste 0 -- -- 42
2017-12-01 23:00:00 3.6 23 Noroeste 55 Oeste 0 -- -- 40
2017-12-01 22:00:00 3.6 33 Noroeste 68 Noroeste 0 -- -- 41
2017-12-01 21:00:00 3.9 37 Noroeste 63 Noroeste 0 -- -- 40
2017-12-01 20:00:00 4.2 18 Norte 36 Noroeste 0 -- -- 32
2017-12-01 19:00:00 4.3 14 Noroeste 35 Noroeste 0 -- -- 30
2017-12-01 18:00:00 5.4 25 Noroeste 62 Norte 0 -- -- 25
2017-12-01 17:00:00 7.1 37 Noroeste 67 Noroeste 0 -- -- 19
2017-12-01 16:00:00 8.1 31 Noroeste 61 Norte 0 -- -- 17
2017-12-01 15:00:00 8 27 Noroeste 56 Noroeste 0 -- -- 31
2017-12-01 14:00:00 8.2 22 Norte 54 Noroeste 0 -- -- 45
2017-12-01 13:00:00 10.6 25 Noroeste 49 Noroeste 0 -- -- 44
2017-12-01 12:00:00 10.3 21 Noroeste 46 Noroeste 0 -- -- 42
2017-12-01 11:00:00 11.6 10 Noroeste 38 Noroeste 0 -- -- 38
2017-12-01 10:00:00 9.3 19 Noroeste 38 Noroeste 0 -- -- 43
2017-12-01 09:00:00 7.4 11 Noroeste 33 Norte 0 -- -- 50
2017-12-01 08:00:00 6.3 17 Noroeste 33 Noroeste 0 -- -- 53
2017-12-01 07:00:00 5.5 11 Noroeste 23 Noroeste 0 -- -- 55
2017-12-01 06:00:00 1.4 5 Sudoeste 10 Oeste 0 -- -- 69
2017-12-01 05:00:00 2.6 5 Sur 11 Este 0 -- -- 65
2017-12-01 04:00:00 2.6 4 Sur 9 Oeste 0 -- -- 63
2017-12-01 03:00:00 3.4 4 Sudoeste 16 Oeste 0 -- -- 57
2017-12-01 02:00:00 5.7 8 Oeste 34 Noroeste 0 -- -- 50
2017-12-01 01:00:00 6.3 9 Noroeste 33 Noroeste 0 -- -- 49
2017-12-01 00:00:00 4.2 6 Oeste 22 Sudoeste 0 -- -- 54
2017-11-30 23:00:00 3.2 0 Calma 26 Noroeste 0 -- -- 54
2017-11-30 22:00:00 5.6 6 Noroeste 27 Oeste 0 -- -- 46
2017-11-30 21:00:00 5.8 6 Noroeste 19 Sudoeste 0 -- -- 43
2017-11-30 20:00:00 6.3 4 Este 9 Noroeste 0 -- -- 39
2017-11-30 19:00:00 6.6 6 Noroeste 18 Noroeste 0 -- -- 38
2017-11-30 18:00:00 8 8 Noroeste 25 Norte 0 -- -- 34
2017-11-30 17:00:00 10.9 11 Noroeste 24 Noroeste 0 -- -- 28
2017-11-30 16:00:00 11.7 10 Norte 29 Norte 0 -- -- 26
2017-11-30 15:00:00 11.9 13 Norte 30 Norte 0 -- -- 28
2017-11-30 14:00:00 11.7 14 Norte 37 Nordeste 0 -- -- 29
2017-11-30 13:00:00 10.8 14 Nordeste 27 Norte 0 -- -- 32
2017-11-30 12:00:00 9.9 21 Norte 36 Norte 0 -- -- 34
2017-11-30 11:00:00 9.2 9 Nordeste 36 Nordeste 0 -- -- 30
2017-11-30 10:00:00 7.5 12 Nordeste 32 Nordeste 0 -- -- 29
2017-11-30 09:00:00 4.5 7 Norte 19 Norte 0 -- -- 33
2017-11-30 08:00:00 3.1 4 Nordeste 9 Norte 0 -- -- 37
2017-11-30 07:00:00 2.6 3 Este 15 Sudeste 0 -- -- 44
2017-11-30 06:00:00 3.7 8 Sur 15 Sudeste 0 -- -- 45
2017-11-30 05:00:00 5.1 4 Este 24 Sudeste 0 -- -- 40
2017-11-30 04:00:00 5.4 5 Oeste 17 Sur 0 -- -- 43
2017-11-30 03:00:00 5.6 10 Sudoeste 28 Sudoeste 0 -- -- 51
2017-11-30 02:00:00 5.9 8 Sur 19 Sudeste 0 -- -- 52
2017-11-30 01:00:00 6.4 6 Oeste 21 Nordeste 0 -- -- 53
2017-11-30 00:00:00 5.1 5 Oeste 13 Sur 0 -- -- 58
2017-11-29 23:00:00 5.7 2 Sudoeste 15 Sur 0 -- -- 58
2017-11-29 22:00:00 6.4 6 Norte 13 Noroeste 0 -- -- 55
2017-11-29 21:00:00 5.4 4 Norte 13 Este 0 -- -- 65
2017-11-29 20:00:00 5.4 5 Sudoeste 9 Noroeste 0 -- -- 73
2017-11-29 19:00:00 8.2 2 Oeste 7 Sur 0 -- -- 76
2017-11-29 18:00:00 9.8 4 Sudoeste 10 Sur 0 -- -- 75
2017-11-29 17:00:00 11.3 4 Sur 12 Sudeste 0 -- -- 67
2017-11-29 16:00:00 12.2 7 Este 13 Este 0 -- -- 48
2017-11-29 15:00:00 12.9 8 Nordeste 24 Norte 0 -- -- 46
2017-11-29 14:00:00 13.2 12 Nordeste 30 Norte 0 -- -- 48
2017-11-29 13:00:00 12.3 17 Norte 28 Nordeste 0 -- -- 52
2017-11-29 12:00:00 11.5 9 Norte 17 Norte 0 -- -- 57
2017-11-29 11:00:00 9.7 2 Nordeste 12 Noroeste 0 -- -- 66
2017-11-29 10:00:00 8.3 2 Norte 9 Nordeste 0 -- -- 72
2017-11-29 09:00:00 7 3 Noroeste 9 Oeste 0 -- -- 86
2017-11-29 08:00:00 7.1 0 Calma 5 Sur 0 -- -- 95
2017-11-29 07:00:00 7.1 0 Calma 4 Este 0.6 -- -- 94
2017-11-29 06:00:00 7.4 3 Nordeste 5 Nordeste 0.4 -- -- 93
2017-11-29 05:00:00 7.2 3 Oeste 4 Oeste 0.4 -- -- 92
2017-11-29 04:00:00 7.5 0 Calma 4 Sur 0.4 -- -- 89
2017-11-29 03:00:00 7.5 4 Sudoeste 5 Sudoeste 0.4 -- -- 85
2017-11-29 02:00:00 8.2 3 Oeste 8 Sudoeste 0 -- -- 72
2017-11-29 01:00:00 8.1 4 Oeste 11 Oeste 0 -- -- 72
2017-11-29 00:00:00 7.7 3 Oeste 10 Oeste 0 -- -- 72
2017-11-28 23:00:00 7.9 0 Calma 5 Nordeste 0 -- -- 71
2017-11-28 22:00:00 7.9 0 Calma 5 Sudoeste 0 -- -- 72
2017-11-28 21:00:00 8.5 0 Calma 4 Oeste 0 -- -- 71
2017-11-28 20:00:00 9.2 0 Calma 6 Noroeste 0 -- -- 69
2017-11-28 19:00:00 9.7 3 Noroeste 5 Noroeste 0 -- -- 68
2017-11-28 18:00:00 10.8 0 Calma 11 Sudoeste 0 -- -- 56
2017-11-28 17:00:00 12.6 5 Sudoeste 12 Sur 0 -- -- 62
2017-11-28 16:00:00 13.9 8 Sur 15 Sur 0 -- -- 61
2017-11-28 15:00:00 16.5 9 Sur 15 Sur 0 -- -- 43
2017-11-28 14:00:00 15.3 3 Sudoeste 18 Sur 0 -- -- 33
2017-11-28 13:00:00 16.5 9 Sudeste 17 Este 0 -- -- 30
2017-11-28 12:00:00 14.7 3 Este 5 Este 0 -- -- 28
2017-11-28 11:00:00 11.4 0 Calma 5 Sur 0 -- -- 37
2017-11-28 10:00:00 6.8 3 Sudoeste 5 Este 0 -- -- 53
2017-11-28 09:00:00 1.2 0 Calma 4 Este 0 -- -- 78
2017-11-28 08:00:00 -0.4 0 Calma 8 Sudoeste 0 -- -- 79
2017-11-28 07:00:00 0.3 4 Norte 9 Noroeste 0 -- -- 77
2017-11-28 06:00:00 1.5 0 Calma 9 Noroeste 0 -- -- 84
2017-11-28 05:00:00 1.8 3 Oeste 8 Oeste 0 -- -- 89
2017-11-28 04:00:00 1.8 0 Calma 5 Sudoeste 0 -- -- 90
2017-11-28 03:00:00 1.9 3 Sur 8 Noroeste 0 -- -- 89
2017-11-28 02:00:00 2.6 0 Calma 4 Sudoeste 0 -- -- 91
2017-11-28 01:00:00 2.1 0 Calma 6 Norte 0 -- -- 92
2017-11-28 00:00:00 2 0 Calma 2 Sudoeste 0 -- -- 92
2017-11-27 23:00:00 2.3 0 Calma 9 Noroeste 0 -- -- 87
2017-11-27 22:00:00 3.7 0 Calma 4 Oeste 0 -- -- 83
2017-11-27 21:00:00 4.4 0 Calma 8 Noroeste 0 -- -- 83
2017-11-27 20:00:00 5.3 2 Norte 5 Noroeste 0 -- -- 80
2017-11-27 19:00:00 7 0 Calma 5 Oeste 0 -- -- 74
2017-11-27 18:00:00 9.4 3 Sudoeste 13 Sudoeste 0 -- -- 69
2017-11-27 17:00:00 12.5 8 Sur 16 Sur 0 -- -- 60
2017-11-27 16:00:00 13.9 12 Sur 18 Sur 0 -- -- 54
2017-11-27 15:00:00 15.1 11 Sur 23 Sudeste 0 -- -- 47
2017-11-27 14:00:00 15 12 Sudeste 21 Sudeste 0 -- -- 47
2017-11-27 13:00:00 14.6 9 Sudeste 17 Sudeste 0 -- -- 48
2017-11-27 12:00:00 12.3 3 Sudeste 11 Sur 0 -- -- 52
2017-11-27 11:00:00 8.7 3 Este 7 Nordeste 0 -- -- 43
2017-11-27 10:00:00 6 3 Sur 5 Sur 0 -- -- 54
2017-11-27 09:00:00 0.4 0 Calma 5 Nordeste 0 -- -- 79
2017-11-27 08:00:00 -1.7 3 Sudoeste 5 Sudoeste 0 -- -- 78
2017-11-27 07:00:00 -1.8 0 Calma 7 Sudoeste 0 -- -- 79
2017-11-27 06:00:00 -1.4 0 Calma 5 Noroeste 0 -- -- 79
2017-11-27 05:00:00 -1.2 0 Calma 4 Sudoeste 0 -- -- 77
2017-11-27 04:00:00 -0.8 0 Calma 3 Norte 0 -- -- 77
2017-11-27 03:00:00 -0.5 0 Calma 2 Sudoeste 0 -- -- 74
2017-11-27 02:00:00 -0.2 2 Norte 4 Norte 0 -- -- 73
2017-11-27 01:00:00 0.8 0 Calma 9 Noroeste 0 -- -- 70
2017-11-27 00:00:00 1.2 4 Sudoeste 7 Sudoeste 0 -- -- 70
2017-11-26 23:00:00 1.7 2 Sudoeste 5 Sudeste 0 -- -- 67
2017-11-26 22:00:00 3 4 Norte 9 Noroeste 0 -- -- 63
2017-11-26 21:00:00 3.7 3 Sudoeste 7 Oeste 0 -- -- 61
2017-11-26 20:00:00 5.4 7 Noroeste 10 Noroeste 0 -- -- 54
2017-11-26 19:00:00 8.1 4 Sudeste 9 Oeste 0 -- -- 47
2017-11-26 18:00:00 11.2 5 Noroeste 18 Norte 0 -- -- 39
2017-11-26 17:00:00 14.5 6 Sur 15 Sur 0 -- -- 34
2017-11-26 16:00:00 15.9 8 Sur 15 Sur 0 -- -- 29
2017-11-26 15:00:00 16.4 4 Sur 19 Sur 0 -- -- 27
2017-11-26 14:00:00 16 6 Sudeste 18 Sur 0 -- -- 27
2017-11-26 13:00:00 16.1 7 Sur 17 Sur 0 -- -- 28
2017-11-26 12:00:00 15.2 10 Sudeste 19 Sudeste 0 -- -- 30
2017-11-26 11:00:00 14 12 Sudeste 19 Sudeste 0 -- -- 33
2017-11-26 10:00:00 12.2 6 Sudeste 13 Sudeste 0 -- -- 36
2017-11-26 09:00:00 8.9 4 Norte 19 Oeste 0 -- -- 45
2017-11-26 08:00:00 6.9 6 Norte 20 Noroeste 0 -- -- 48
2017-11-26 07:00:00 7.2 6 Noroeste 21 Norte 0 -- -- 46
2017-11-26 06:00:00 7.2 4 Noroeste 13 Noroeste 0 -- -- 44
2017-11-26 05:00:00 7.9 7 Noroeste 28 Norte 0 -- -- 38
2017-11-26 04:00:00 8.6 8 Noroeste 33 Noroeste 0 -- -- 40
2017-11-26 03:00:00 8.8 12 Norte 34 Noroeste 0 -- -- 49
2017-11-26 02:00:00 9.4 19 Noroeste 41 Noroeste 0 -- -- 51
2017-11-26 01:00:00 9.5 21 Noroeste 43 Norte 0 -- -- 54
2017-11-26 00:00:00 10.1 22 Noroeste 40 Norte 0 -- -- 54
2017-11-25 23:00:00 10.3 17 Norte 27 Noroeste 0 -- -- 57
2017-11-25 22:00:00 11.1 12 Norte 35 Norte 0 -- -- 57
2017-11-25 21:00:00 12 8 Nordeste 24 Este 0 -- -- 58
2017-11-25 20:00:00 12.6 10 Noroeste 39 Noroeste 0 -- -- 58
2017-11-25 19:00:00 12.5 26 Noroeste 45 Noroeste 0 -- -- 60
2017-11-25 18:00:00 13.5 22 Norte 52 Norte 0 -- -- 57
2017-11-25 17:00:00 14.8 27 Norte 46 Norte 0 -- -- 54
2017-11-25 16:00:00 17.2 23 Norte 41 Norte 0 -- -- 49
2017-11-25 15:00:00 18.2 17 Nordeste 31 Nordeste 0 -- -- 48
2017-11-25 14:00:00 19.6 10 Nordeste 22 Norte 0 -- -- 43
2017-11-25 13:00:00 18.5 8 Nordeste 17 Nordeste 0 -- -- 44
2017-11-25 12:00:00 16.9 0 Calma 8 Este 0 -- -- 43
2017-11-25 11:00:00 13.4 2 Este 6 Sudoeste 0 -- -- 47
2017-11-25 10:00:00 10.1 0 Calma 5 Sudoeste 0 -- -- 60
2017-11-25 09:00:00 8.8 0 Calma 6 Norte 0 -- -- 61
2017-11-25 08:00:00 8.4 2 Oeste 5 Oeste 0 -- -- 59
2017-11-25 07:00:00 8.7 3 Nordeste 8 Norte 0 -- -- 57
2017-11-25 06:00:00 8.6 0 Calma 10 Oeste 0 -- -- 58
2017-11-25 05:00:00 7.9 3 Oeste 6 Este 0 -- -- 58
2017-11-25 04:00:00 9.2 6 Norte 9 Norte 0 -- -- 53
2017-11-25 03:00:00 10 2 Norte 12 Oeste 0 -- -- 52
2017-11-25 02:00:00 10.4 2 Norte 8 Oeste 0 -- -- 51
2017-11-25 01:00:00 10.6 3 Oeste 8 Noroeste 0 -- -- 50
2017-11-25 00:00:00 10.8 2 Nordeste 6 Noroeste 0 -- -- 53
2017-11-24 23:00:00 11.1 0 Calma 5 Nordeste 0 -- -- 55
2017-11-24 22:00:00 11 4 Norte 7 Sudoeste 0 -- -- 54
2017-11-24 21:00:00 11.6 2 Oeste 9 Norte 0 -- -- 52
2017-11-24 20:00:00 13.9 4 Noroeste 9 Noroeste 0 -- -- 46
2017-11-24 19:00:00 15.2 0 Calma 10 Noroeste 0 -- -- 43
2017-11-24 18:00:00 17.6 3 Oeste 12 Sudoeste 0 -- -- 39
2017-11-24 17:00:00 21.4 6 Oeste 23 Noroeste 0 -- -- 32
2017-11-24 16:00:00 23.6 10 Sudoeste 22 Sudoeste 0 -- -- 32
2017-11-24 15:00:00 23.1 9 Sudoeste 23 Sudoeste 0 -- -- 33
2017-11-24 14:00:00 22.9 16 Sudoeste 36 Sudoeste 0 -- -- 34
2017-11-24 13:00:00 23.9 15 Oeste 32 Sudoeste 0 -- -- 34
2017-11-24 12:00:00 22.6 8 Noroeste 23 Oeste 0 -- -- 32
2017-11-24 11:00:00 20.4 8 Sur 21 Oeste 0 -- -- 35
2017-11-24 10:00:00 13.7 3 Sur 11 Sudoeste 0 -- -- 47
2017-11-24 09:00:00 11.4 2 Nordeste 9 Sudoeste 0 -- -- 53
2017-11-24 08:00:00 11.3 8 Sudoeste 12 Oeste 0 -- -- 51
2017-11-24 07:00:00 11.9 4 Nordeste 12 Norte 0 -- -- 48
2017-11-24 06:00:00 11.8 2 Oeste 18 Oeste 0 -- -- 51
2017-11-24 05:00:00 11.5 3 Nordeste 8 Noroeste 0 -- -- 53
2017-11-24 04:00:00 12.3 3 Norte 9 Oeste 0 -- -- 48
2017-11-24 03:00:00 13 3 Noroeste 7 Noroeste 0 -- -- 46
2017-11-24 02:00:00 12.8 3 Sudoeste 5 Noroeste 0 -- -- 47
2017-11-24 01:00:00 11.4 0 Calma 6 Sudeste 0 -- -- 51
2017-11-24 00:00:00 9.9 3 Nordeste 8 Sudoeste 0 -- -- 61
2017-11-23 23:00:00 9.7 0 Calma 8 Oeste 0 -- -- 64
2017-11-23 22:00:00 9 2 Nordeste 5 Noroeste 0 -- -- 66
2017-11-23 21:00:00 9.3 3 Norte 8 Oeste 0 -- -- 63
2017-11-23 20:00:00 10.8 3 Norte 9 Norte 0 -- -- 62
2017-11-23 19:00:00 12.2 0 Calma 5 Sudeste 0 -- -- 62
2017-11-23 18:00:00 15 3 Sudoeste 10 Noroeste 0 -- -- 54
2017-11-23 17:00:00 19.5 2 Sudoeste 8 Este 0 -- -- 44
2017-11-23 16:00:00 19.9 3 Nordeste 13 Nordeste 0 -- -- 43
2017-11-23 15:00:00 20.5 3 Este 8 Sudeste 0 -- -- 43
2017-11-23 14:00:00 19.2 3 Este 7 Este 0 -- -- 42
2017-11-23 13:00:00 16.4 5 Norte 9 Nordeste 0 -- -- 43
2017-11-23 12:00:00 15 2 Sudeste 7 Sudoeste 0 -- -- 39
2017-11-23 11:00:00 11.7 3 Nordeste 9 Sudeste 0 -- -- 49
2017-11-23 10:00:00 7.5 3 Este 10 Sur 0 -- -- 72
2017-11-23 09:00:00 3.2 5 Sudoeste 9 Sudoeste 0 -- -- 86
2017-11-23 08:00:00 2.8 0 Calma 8 Norte 0 -- -- 86
2017-11-23 07:00:00 2.4 2 Sur 8 Sudoeste 0 -- -- 89
2017-11-23 06:00:00 2 0 Calma 4 Sudoeste 0 -- -- 91
2017-11-23 05:00:00 2.2 0 Calma 4 Sudoeste 0 -- -- 88
2017-11-23 04:00:00 2 2 Oeste 5 Oeste 0 -- -- 91
2017-11-23 03:00:00 2.3 0 Calma 4 Oeste 0 -- -- 91
2017-11-23 02:00:00 2.3 2 Sudoeste 6 Sudeste 0 -- -- 90
2017-11-23 01:00:00 3 0 Calma 3 Norte 0 -- -- 89
2017-11-23 00:00:00 3.5 2 Oeste 5 Oeste 0 -- -- 88
2017-11-22 23:00:00 3.8 3 Sur 7 Noroeste 0 -- -- 86
2017-11-22 22:00:00 5 0 Calma 8 Noroeste 0 -- -- 83
2017-11-22 21:00:00 5.6 0 Calma 6 Oeste 0 -- -- 80
2017-11-22 20:00:00 7.8 0 Calma 5 Noroeste 0 -- -- 73
2017-11-22 19:00:00 9.9 0 Calma 8 Noroeste 0 -- -- 68
2017-11-22 18:00:00 12.7 5 Noroeste 8 Sur 0 -- -- 60
2017-11-22 17:00:00 16.4 6 Sudoeste 13 Sudeste 0 -- -- 52
2017-11-22 16:00:00 18.2 9 Sudeste 14 Sudeste 0 -- -- 43
2017-11-22 15:00:00 19 9 Sur 16 Sudeste 0 -- -- 39
2017-11-22 14:00:00 18.4 7 Sudeste 13 Este 0 -- -- 39
2017-11-22 13:00:00 17.4 6 Sudeste 14 Sudeste 0 -- -- 41
2017-11-22 12:00:00 16 4 Este 9 Este 0 -- -- 41
2017-11-22 11:00:00 12.9 0 Calma 6 Sur 0 -- -- 46
2017-11-22 10:00:00 9.5 0 Calma 3 Sur 0 -- -- 56
2017-11-22 09:00:00 3.8 0 Calma 4 Norte 0 -- -- 87
2017-11-22 08:00:00 1.1 0 Calma 3 Noroeste 0 -- -- 87
2017-11-22 07:00:00 1.3 0 Calma 3 Sudeste 0 -- -- 88
2017-11-22 06:00:00 1.5 0 Calma 2 Norte 0 -- -- 89
2017-11-22 05:00:00 1.8 0 Calma 3 Este 0 -- -- 89
2017-11-22 04:00:00 2.1 0 Calma 4 Noroeste 0 -- -- 88
2017-11-22 03:00:00 2.7 0 Calma 3 Noroeste 0 -- -- 89
2017-11-22 02:00:00 3.2 0 Calma 6 Noroeste 0 -- -- 90
2017-11-22 01:00:00 3.5 0 Calma 2 Sur 0 -- -- 89
2017-11-22 00:00:00 4.2 0 Calma 0 Calma 0 -- -- 87
2017-11-21 23:00:00 5.2 0 Calma 2 Oeste 0 -- -- 87
2017-11-21 22:00:00 6 0 Calma 3 Este 0 -- -- 84
2017-11-21 21:00:00 7.2 0 Calma 2 Sudoeste 0 -- -- 79
2017-11-21 20:00:00 8.9 0 Calma 4 Noroeste 0 -- -- 74
2017-11-21 19:00:00 11.1 2 Noroeste 10 Noroeste 0 -- -- 70
2017-11-21 18:00:00 14.5 3 Norte 8 Este 0 -- -- 61
2017-11-21 17:00:00 18.3 4 Sudeste 18 Sudeste 0 -- -- 52
2017-11-21 16:00:00 20.5 12 Sudeste 19 Sudeste 0 -- -- 46
2017-11-21 15:00:00 21.2 8 Sudeste 17 Sudeste 0 -- -- 36
2017-11-21 14:00:00 21.1 9 Sudeste 16 Sudeste 0 -- -- 31
2017-11-21 13:00:00 20 7 Sudeste 13 Sudeste 0 -- -- 35
2017-11-21 12:00:00 17.9 2 Sudeste 5 Este 0 -- -- 34
2017-11-21 11:00:00 14.2 0 Calma 4 Sudeste 0 -- -- 41
2017-11-21 10:00:00 10.1 2 Sudoeste 5 Sur 0 -- -- 58
2017-11-21 09:00:00 4 0 Calma 3 Sudoeste 0 -- -- 92
2017-11-21 08:00:00 1.5 0 Calma 3 Norte 0 -- -- 90
2017-11-21 07:00:00 1.4 0 Calma 3 Oeste 0 -- -- 92
2017-11-21 06:00:00 1.9 0 Calma 4 Noroeste 0 -- -- 92
2017-11-21 05:00:00 2.2 0 Calma 3 Este 0 -- -- 92
2017-11-21 04:00:00 2.8 0 Calma 6 Noroeste 0 -- -- 93
2017-11-21 03:00:00 2.8 0 Calma 5 Noroeste 0 -- -- 93
2017-11-21 02:00:00 3.2 0 Calma 5 Noroeste 0 -- -- 92
2017-11-21 01:00:00 4.3 0 Calma 4 Sur 0 -- -- 94
2017-11-21 00:00:00 4.7 0 Calma 2 Sudeste 0 -- -- 92
2017-11-20 23:00:00 5.2 0 Calma 2 Sur 0 -- -- 89
2017-11-20 22:00:00 5.9 0 Calma 2 Norte 0 -- -- 87
2017-11-20 21:00:00 7 0 Calma 4 Sudoeste 0 -- -- 84
2017-11-20 20:00:00 8.8 4 Noroeste 8 Noroeste 0 -- -- 78
2017-11-20 19:00:00 10.8 5 Noroeste 9 Noroeste 0 -- -- 73
2017-11-20 18:00:00 13.7 5 Noroeste 6 Noroeste 0 -- -- 68
2017-11-20 17:00:00 17.7 4 Sur 15 Sur 0 -- -- 58
2017-11-20 16:00:00 19.4 9 Sur 17 Sur 0 -- -- 51
2017-11-20 15:00:00 20 12 Sur 17 Sur 0 -- -- 46
2017-11-20 14:00:00 20 6 Sur 14 Sur 0 -- -- 37
2017-11-20 13:00:00 18.3 5 Este 11 Sudeste 0 -- -- 38
2017-11-20 12:00:00 16.8 3 Sudeste 5 Este 0 -- -- 38
2017-11-20 11:00:00 13.2 3 Sudeste 5 Sudeste 0 -- -- 42
2017-11-20 10:00:00 9.7 3 Sur 4 Sur 0 -- -- 54
2017-11-20 09:00:00 3.6 0 Calma 3 Sudeste 0 -- -- 90
2017-11-20 08:00:00 1.2 0 Calma 3 Oeste 0 -- -- 88
2017-11-20 07:00:00 1.2 0 Calma 2 Sur 0 -- -- 90
2017-11-20 06:00:00 1.5 0 Calma 2 Norte 0 -- -- 90
2017-11-20 05:00:00 1.7 0 Calma 2 Noroeste 0 -- -- 91
2017-11-20 04:00:00 2 0 Calma 3 Nordeste 0 -- -- 90
2017-11-20 03:00:00 2.8 0 Calma 6 Noroeste 0 -- -- 92
2017-11-20 02:00:00 3.1 0 Calma 4 Sudeste 0 -- -- 92
2017-11-20 01:00:00 3.8 2 Oeste 4 Sudoeste 0 -- -- 91
2017-11-20 00:00:00 4.2 0 Calma 3 Norte 0 -- -- 90
2017-11-19 23:00:00 4.6 2 Sudoeste 4 Sudoeste 0 -- -- 88
2017-11-19 22:00:00 5.6 0 Calma 4 Sudeste 0 -- -- 84
2017-11-19 21:00:00 7.2 0 Calma 3 Noroeste 0 -- -- 82
2017-11-19 20:00:00 8.6 2 Sudoeste 8 Noroeste 0 -- -- 78
2017-11-19 19:00:00 10.4 5 Noroeste 9 Noroeste 0 -- -- 73
2017-11-19 18:00:00 13.8 3 Norte 10 Sur 0 -- -- 64
2017-11-19 17:00:00 17.2 8 Sur 14 Sur 0 -- -- 56
2017-11-19 16:00:00 19.8 5 Sur 12 Sudeste 0 -- -- 39
2017-11-19 15:00:00 20 7 Sur 13 Sur 0 -- -- 37
2017-11-19 14:00:00 18.3 3 Este 9 Este 0 -- -- 38
2017-11-19 13:00:00 17.4 4 Este 12 Sudeste 0 -- -- 40
2017-11-19 12:00:00 16.2 0 Calma 6 Sudeste 0 -- -- 41
2017-11-19 11:00:00 12.9 0 Calma 5 Sur 0 -- -- 48
2017-11-19 10:00:00 9.2 2 Sur 4 Sudoeste 0 -- -- 59
2017-11-19 09:00:00 3.7 0 Calma 3 Este 0 -- -- 90
2017-11-19 08:00:00 1.2 0 Calma 3 Sudeste 0 -- -- 90
2017-11-19 07:00:00 1.4 0 Calma 3 Sudoeste 0 -- -- 90
2017-11-19 06:00:00 1.7 0 Calma 3 Oeste 0 -- -- 91
2017-11-19 05:00:00 2 0 Calma 5 Sudoeste 0 -- -- 90
2017-11-19 04:00:00 2.3 0 Calma 3 Norte 0 -- -- 90
2017-11-19 03:00:00 2.8 0 Calma 3 Noroeste 0 -- -- 90
2017-11-19 02:00:00 3.1 2 Este 4 Sudeste 0 -- -- 89
2017-11-19 01:00:00 3.7 0 Calma 4 Sudoeste 0 -- -- 91
2017-11-19 00:00:00 4.4 0 Calma 5 Sudoeste 0 -- -- 91
2017-11-18 23:00:00 5.1 0 Calma 7 Oeste 0 -- -- 92
2017-11-18 22:00:00 5.5 0 Calma 6 Noroeste 0 -- -- 89
2017-11-18 21:00:00 6.9 2 Oeste 4 Oeste 0 -- -- 86
2017-11-18 20:00:00 8.7 0 Calma 4 Noroeste 0 -- -- 82
2017-11-18 19:00:00 10.4 2 Noroeste 7 Noroeste 0 -- -- 77
2017-11-18 18:00:00 13.4 2 Sudoeste 14 Sudeste 0 -- -- 70
2017-11-18 17:00:00 15.9 10 Sudeste 19 Sudeste 0 -- -- 64
2017-11-18 16:00:00 18 10 Sudeste 21 Sudeste 0 -- -- 54
2017-11-18 15:00:00 19 13 Sudeste 22 Sudeste 0 -- -- 43
2017-11-18 14:00:00 20.4 8 Sur 18 Sudeste 0 -- -- 32
2017-11-18 13:00:00 20 10 Sudeste 17 Sur 0 -- -- 33
2017-11-18 12:00:00 19.4 6 Sur 11 Sur 0 -- -- 33
2017-11-18 11:00:00 15.9 3 Sur 7 Sudoeste 0 -- -- 38
2017-11-18 10:00:00 11.7 3 Sur 4 Sur 0 -- -- 48
2017-11-18 09:00:00 5.5 2 Este 6 Sudoeste 0 -- -- 68
2017-11-18 08:00:00 2.5 0 Calma 4 Oeste 0 -- -- 76
2017-11-18 07:00:00 2.7 0 Calma 4 Noroeste 0 -- -- 75
2017-11-18 06:00:00 2.9 0 Calma 5 Sudeste 0 -- -- 75
2017-11-18 05:00:00 3.1 0 Calma 3 Este 0 -- -- 74
2017-11-18 04:00:00 3.6 0 Calma 4 Sudoeste 0 -- -- 74
2017-11-18 03:00:00 3.7 0 Calma 3 Noroeste 0 -- -- 75
2017-11-18 02:00:00 4.2 0 Calma 2 Sudoeste 0 -- -- 76
2017-11-18 01:00:00 4.3 0 Calma 5 Sudeste 0 -- -- 77
2017-11-18 00:00:00 4.6 0 Calma 5 Oeste 0 -- -- 78
2017-11-17 23:00:00 5.4 0 Calma 4 Norte 0 -- -- 78
2017-11-17 22:00:00 6.5 2 Sur 4 Norte 0 -- -- 75
2017-11-17 21:00:00 7.4 2 Noroeste 5 Noroeste 0 -- -- 74
2017-11-17 20:00:00 8.5 0 Calma 7 Norte 0 -- -- 69
2017-11-17 19:00:00 11 4 Sudoeste 10 Noroeste 0 -- -- 62
2017-11-17 18:00:00 14.2 8 Noroeste 10 Noroeste 0 -- -- 56
2017-11-17 17:00:00 18.2 2 Sudeste 13 Sur 0 -- -- 47
2017-11-17 16:00:00 19.8 10 Sur 17 Sur 0 -- -- 40
2017-11-17 15:00:00 20.5 9 Sur 17 Sur 0 -- -- 32
2017-11-17 14:00:00 19.4 6 Este 14 Sudeste 0 -- -- 31
2017-11-17 13:00:00 18.7 6 Sudeste 13 Sudeste 0 -- -- 32
2017-11-17 12:00:00 18.4 6 Sudeste 14 Sudeste 0 -- -- 34
2017-11-17 11:00:00 16.1 4 Sur 7 Sudeste 0 -- -- 38
2017-11-17 10:00:00 11.9 0 Calma 4 Sudoeste 0 -- -- 47
2017-11-17 09:00:00 5.3 0 Calma 3 Oeste 0 -- -- 81
2017-11-17 08:00:00 1.9 0 Calma 3 Noroeste 0 -- -- 85
2017-11-17 07:00:00 1.2 0 Calma 6 Sudoeste 0 -- -- 89
2017-11-17 06:00:00 1.5 3 Oeste 4 Oeste 0 -- -- 90
2017-11-17 05:00:00 1.6 0 Calma 3 Norte 0 -- -- 90
2017-11-17 04:00:00 1.7 0 Calma 2 Noroeste 0 -- -- 91
2017-11-17 03:00:00 2.1 0 Calma 3 Sudeste 0 -- -- 90
2017-11-17 02:00:00 2.5 0 Calma 3 Oeste 0 -- -- 89
2017-11-17 01:00:00 3 0 Calma 2 Oeste 0 -- -- 91
2017-11-17 00:00:00 3.4 0 Calma 4 Este 0 -- -- 90
2017-11-16 23:00:00 4.3 0 Calma 4 Oeste 0 -- -- 87
2017-11-16 22:00:00 5.1 0 Calma 4 Noroeste 0 -- -- 86
2017-11-16 21:00:00 6.1 0 Calma 3 Oeste 0 -- -- 81
2017-11-16 20:00:00 7.9 0 Calma 5 Sur 0 -- -- 76
2017-11-16 19:00:00 9.8 5 Noroeste 8 Oeste 0 -- -- 73
2017-11-16 18:00:00 12.8 4 Sudeste 12 Sudeste 0 -- -- 66
2017-11-16 17:00:00 15.5 8 Sudeste 15 Sudeste 0 -- -- 57
2017-11-16 16:00:00 17.4 9 Sudeste 15 Sudeste 0 -- -- 44
2017-11-16 15:00:00 18 7 Sudeste 13 Sur 0 -- -- 39
2017-11-16 14:00:00 17.9 6 Sudeste 17 Sudeste 0 -- -- 31
2017-11-16 13:00:00 17.3 9 Sudeste 15 Sudeste 0 -- -- 26
2017-11-16 12:00:00 15.7 4 Este 8 Sudeste 0 -- -- 33
2017-11-16 11:00:00 12.5 0 Calma 6 Este 0 -- -- 41
2017-11-16 10:00:00 9 0 Calma 3 Sudeste 0 -- -- 52
2017-11-16 09:00:00 3 0 Calma 3 Sudeste 0 -- -- 76
2017-11-16 08:00:00 0.1 0 Calma 4 Norte 0 -- -- 82
2017-11-16 07:00:00 0.4 0 Calma 2 Oeste 0 -- -- 82
2017-11-16 06:00:00 0.7 0 Calma 3 Sudeste 0 -- -- 83
2017-11-16 05:00:00 0.8 2 Norte 4 Norte 0 -- -- 81
2017-11-16 04:00:00 1.3 0 Calma 2 Este 0 -- -- 81
2017-11-16 03:00:00 1.5 0 Calma 3 Norte 0 -- -- 80
2017-11-16 02:00:00 1.9 2 Este 3 Este 0 -- -- 78
2017-11-16 01:00:00 2.3 0 Calma 5 Oeste 0 -- -- 77
2017-11-16 00:00:00 2.8 0 Calma 4 Sudeste 0 -- -- 76
2017-11-15 23:00:00 4 2 Sudoeste -- -- 0 -- -- 71
2017-11-15 22:00:00 4.6 3 Nordeste 5 Este 0 -- -- 69
2017-11-15 21:00:00 6.2 2 Oeste 4 Noroeste 0 -- -- 65
2017-11-15 20:00:00 7.7 0 Calma 6 Noroeste 0 -- -- 61
2017-11-15 19:00:00 9.7 0 Calma 5 Noroeste 0 -- -- 55
2017-11-15 18:00:00 13.2 3 Oeste 10 Sudeste 0 -- -- 49
2017-11-15 17:00:00 15.8 3 Sudeste 15 Sudeste 0 -- -- 44
2017-11-15 16:00:00 17.3 8 Sudeste 14 Sudeste 0 -- -- 33
2017-11-15 15:00:00 18.3 8 Sudeste 15 Sudeste 0 -- -- 24
2017-11-15 14:00:00 18.1 7 Sudeste 12 Sudeste 0 -- -- 26
2017-11-15 13:00:00 16.7 4 Sudeste 9 Sur 0 -- -- 26
2017-11-15 12:00:00 15 4 Este 6 Este 0 -- -- 29
2017-11-15 11:00:00 12.4 0 Calma 5 Sudoeste 0 -- -- 33
2017-11-15 10:00:00 8.5 3 Sur 4 Sur 0 -- -- 42
2017-11-15 09:00:00 3.3 2 Sudoeste 4 Sur 0 -- -- 60
2017-11-15 08:00:00 -1 3 Sudoeste 6 Noroeste 0 -- -- 71
2017-11-15 07:00:00 -1.2 3 Sudoeste 4 Sudoeste 0 -- -- 72
2017-11-15 06:00:00 -1 0 Calma 4 Noroeste 0 -- -- 72
2017-11-15 05:00:00 -0.6 0 Calma 6 Noroeste 0 -- -- 73
2017-11-15 04:00:00 -0.3 0 Calma 5 Oeste 0 -- -- 75
2017-11-15 03:00:00 -0.1 2 Norte 5 Norte 0 -- -- 74
2017-11-15 02:00:00 0.3 0 Calma 3 Norte 0 -- -- 72
2017-11-15 01:00:00 0.6 2 Oeste 4 Sudoeste 0 -- -- 71
2017-11-15 00:00:00 1.4 0 Calma 6 Sudoeste 0 -- -- 69